Time;durP1;ratioP1;P1;durP2;ratioP2;P2;SDS_P1;SDS_P2;PMS_P1;PMS_P2;Temp;Humidity;BMP_temperature;BMP_pressure;BME280_temperature;BME280_humidity;BME280_pressure;Samples;Min_cycle;Max_cycle;Signal;HPM_P1;HPM_P2
2023/10/20 00:00:59;;;;;;;;;0.00;0.00;;;;;19.03;53.70;97114.84;5086317;27;45529;-77
2023/10/20 00:03:24;;;;;;;;;0.00;0.00;;;;;19.08;52.88;97118.09;5088953;27;45475;-78
2023/10/20 00:05:50;;;;;;;;;0.00;0.00;;;;;19.03;52.89;97114.84;5087426;27;45431;-76
2023/10/20 00:08:16;;;;;;;;;0.00;0.00;;;;;18.90;53.20;97104.16;5088152;27;45506;-76
2023/10/20 00:10:41;;;;;;;;;0.00;0.00;;;;;18.94;52.80;97120.69;5086435;27;45483;-77
2023/10/20 00:13:07;;;;;;;;;0.00;0.00;;;;;18.67;53.06;97090.44;5087182;27;45805;-78
2023/10/20 00:15:34;;;;;;;;;0.67;0.00;;;;;18.69;52.84;97093.00;5085953;27;45513;-78
2023/10/20 00:18:00;;;;;;;;;0.00;0.00;;;;;18.81;52.85;97116.13;5085982;27;45453;-74
2023/10/20 00:20:26;;;;;;;;;0.00;0.00;;;;;18.81;52.90;97105.53;5087711;27;45510;-79
2023/10/20 00:22:51;;;;;;;;;0.00;0.00;;;;;18.72;52.76;97092.84;5087060;27;45511;-76
2023/10/20 00:25:17;;;;;;;;;0.00;0.00;;;;;18.78;52.65;97103.06;5084441;27;45406;-77
2023/10/20 00:27:43;;;;;;;;;0.00;0.00;;;;;18.73;52.65;97097.16;5083628;27;45414;-77
2023/10/20 00:30:11;;;;;;;;;0.00;0.00;;;;;18.66;52.65;97095.81;5087355;27;45417;-79
2023/10/20 00:32:39;;;;;;;;;0.00;0.00;;;;;18.68;52.72;97099.22;5087519;27;46400;-77
2023/10/20 00:35:07;;;;;;;;;0.00;0.00;;;;;18.65;52.57;97091.47;5083324;27;45482;-80
2023/10/20 00:37:34;;;;;;;;;0.00;0.00;;;;;18.46;52.80;97079.34;5086209;27;45452;-80
2023/10/20 00:39:59;;;;;;;;;0.00;0.00;;;;;18.53;52.78;97089.56;5087923;27;45447;-78
2023/10/20 00:42:25;;;;;;;;;1.00;0.00;;;;;18.45;52.94;97098.75;5085903;27;45516;-78
2023/10/20 00:44:53;;;;;;;;;0.00;0.00;;;;;18.42;53.16;97085.75;5086524;27;45577;-79
2023/10/20 00:47:19;;;;;;;;;0.00;0.00;;;;;18.06;52.98;97049.91;5087653;27;45558;-76
2023/10/20 00:49:45;;;;;;;;;0.00;0.00;;;;;18.39;52.91;97114.97;5086363;27;45441;-77
2023/10/20 00:52:13;;;;;;;;;0.00;0.00;;;;;18.38;52.74;97122.97;5086446;27;45445;-78
2023/10/20 00:54:40;;;;;;;;;0.00;0.00;;;;;18.37;52.83;97116.00;5087399;27;45436;-79
2023/10/20 00:57:06;;;;;;;;;0.00;0.00;;;;;18.36;52.86;97116.91;5086067;27;45626;-76
2023/10/20 00:59:31;;;;;;;;;0.00;0.00;;;;;18.21;52.71;97101.00;5086595;27;45300;-79
2023/10/20 01:01:57;;;;;;;;;0.00;0.00;;;;;18.25;52.41;97115.75;5087197;27;46150;-78
2023/10/20 01:04:23;;;;;;;;;0.00;0.00;;;;;18.30;52.63;97126.03;5086168;27;45430;-78
2023/10/20 01:06:49;;;;;;;;;0.00;0.00;;;;;18.25;52.68;97128.09;5090455;27;45481;-79
2023/10/20 01:09:25;;;;;;;;;0.00;0.00;;;;;18.18;52.54;97116.16;5090984;27;45462;-74
2023/10/20 01:11:52;;;;;;;;;0.00;0.00;;;;;18.21;52.44;97116.84;5088187;27;46106;-79
2023/10/20 01:14:17;;;;;;;;;0.00;0.00;;;;;18.17;52.25;97091.53;5088841;27;45485;-74
2023/10/20 01:16:43;;;;;;;;;0.00;0.00;;;;;18.28;51.86;97101.50;5086265;27;45583;-76
2023/10/20 01:19:09;;;;;;;;;0.67;0.00;;;;;18.28;51.86;97109.41;5090397;27;45318;-78
2023/10/20 01:21:36;;;;;;;;;0.00;0.00;;;;;18.21;51.66;97105.44;5090358;27;45363;-78
2023/10/20 01:24:03;;;;;;;;;0.00;0.00;;;;;18.08;51.89;97085.00;5088448;27;45336;-77
2023/10/20 01:26:30;;;;;;;;;0.00;0.00;;;;;18.08;51.28;97089.41;5089730;27;45505;-79
2023/10/20 01:28:56;;;;;;;;;1.00;0.67;;;;;18.03;51.09;97105.50;5089320;27;45382;-76
2023/10/20 01:31:25;;;;;;;;;0.00;0.00;;;;;18.04;51.09;97087.88;5088033;27;45430;-80
2023/10/20 01:33:51;;;;;;;;;0.00;0.00;;;;;18.02;51.05;97081.81;5088087;27;45450;-80
2023/10/20 01:36:16;;;;;;;;;0.67;0.00;;;;;17.60;50.91;96996.97;5090230;27;45622;-76
2023/10/20 01:38:42;;;;;;;;;1.00;0.00;;;;;17.97;51.17;97075.97;5088623;27;45563;-79
2023/10/20 01:41:08;;;;;;;;;0.33;0.33;;;;;18.05;51.15;97081.66;5088251;27;45551;-77
2023/10/20 01:43:34;;;;;;;;;0.00;0.00;;;;;18.03;50.74;97065.06;5088338;27;45505;-77
2023/10/20 01:46:03;;;;;;;;;0.67;0.67;;;;;18.02;50.74;97073.91;5088220;27;45523;-78
2023/10/20 01:48:30;;;;;;;;;1.00;0.00;;;;;18.13;50.48;97073.31;5089648;27;45536;-74
2023/10/20 01:50:56;;;;;;;;;0.00;0.00;;;;;18.07;50.05;97054.22;5087397;27;46332;-78
2023/10/20 01:53:22;;;;;;;;;2.00;0.00;;;;;17.98;50.28;97038.88;5090017;27;45353;-79
2023/10/20 01:55:51;;;;;;;;;0.00;0.00;;;;;18.02;50.13;97048.34;5088814;27;45428;-78
2023/10/20 01:58:21;;;;;;;;;0.33;0.00;;;;;18.04;50.50;97042.97;5088034;27;45520;-79
2023/10/20 02:00:50;;;;;;;;;0.33;0.33;;;;;18.04;50.25;97040.34;5085289;27;45644;-79
2023/10/20 02:03:16;;;;;;;;;1.00;0.00;;;;;17.69;50.02;96975.34;5087211;27;45430;-74
2023/10/20 02:05:42;;;;;;;;;0.00;0.00;;;;;18.01;49.90;97035.25;5089110;27;45401;-77
2023/10/20 02:08:11;;;;;;;;;0.00;0.00;;;;;17.62;50.19;96981.88;5087920;27;45484;-78
2023/10/20 02:10:37;;;;;;;;;0.00;0.00;;;;;17.76;49.59;97004.03;5086906;27;46136;-79
2023/10/20 02:13:03;;;;;;;;;1.00;0.00;;;;;17.95;49.89;97033.78;5088658;27;45219;-76
2023/10/20 02:15:29;;;;;;;;;0.00;0.00;;;;;17.85;49.73;97037.88;5085958;27;45433;-77
2023/10/20 02:17:56;;;;;;;;;0.00;0.00;;;;;17.80;50.03;97021.41;5087384;27;45383;-79
2023/10/20 02:20:24;;;;;;;;;0.00;0.00;;;;;17.88;49.61;97041.19;5088332;27;45470;-77
2023/10/20 02:22:50;;;;;;;;;0.67;0.00;;;;;17.88;49.61;97051.75;5087324;27;45518;-78
2023/10/20 02:25:16;;;;;;;;;0.00;0.00;;;;;17.87;49.29;97060.63;5087157;27;45681;-74
2023/10/20 02:27:43;;;;;;;;;0.00;0.00;;;;;17.91;49.31;97053.38;5088990;27;45453;-77
2023/10/20 02:30:13;;;;;;;;;0.00;0.00;;;;;17.87;49.30;97070.34;5087091;27;46572;-79
2023/10/20 02:32:39;;;;;;;;;0.00;0.00;;;;;17.86;49.26;97044.84;5086310;27;45444;-76
2023/10/20 02:35:06;;;;;;;;;0.00;0.00;;;;;17.78;49.28;97032.03;5088134;27;45392;-79
2023/10/20 02:37:32;;;;;;;;;0.00;0.00;;;;;17.79;49.19;97040.84;5087734;27;45158;-78
2023/10/20 02:39:57;;;;;;;;;0.00;0.00;;;;;17.56;48.80;97003.34;5086308;27;46184;-77
2023/10/20 02:42:23;;;;;;;;;0.00;0.00;;;;;17.88;48.78;97054.38;5088325;27;45333;-77
2023/10/20 02:44:49;;;;;;;;;0.00;0.00;;;;;17.84;48.88;97054.66;5086997;27;45285;-77
2023/10/20 02:47:14;;;;;;;;;0.00;0.00;;;;;17.71;48.74;97033.34;5087176;27;45367;-77
2023/10/20 02:49:40;;;;;;;;;0.00;0.00;;;;;17.49;48.64;97002.00;5080308;27;45563;-79
2023/10/20 02:52:07;;;;;;;;;0.00;0.00;;;;;17.66;48.39;97014.25;5077753;27;45487;-79
2023/10/20 02:54:34;;;;;;;;;0.00;0.00;;;;;17.92;48.62;97054.22;5078072;28;45453;-78
2023/10/20 02:57:00;;;;;;;;;0.00;0.00;;;;;17.86;48.60;97058.91;5078094;27;45491;-77
2023/10/20 02:59:26;;;;;;;;;0.00;0.00;;;;;17.88;48.52;97061.47;5029557;27;1384448;-76
2023/10/20 03:01:55;;;;;;;;;0.00;0.00;;;;;17.86;48.25;97058.91;5079120;27;45555;-79
2023/10/20 03:04:21;;;;;;;;;0.00;0.00;;;;;17.44;48.39;96990.81;5079109;27;45467;-77
2023/10/20 03:06:47;;;;;;;;;0.00;0.00;;;;;17.82;48.26;97041.50;5079191;27;45476;-79
2023/10/20 03:09:13;;;;;;;;;0.00;0.00;;;;;17.99;48.25;97063.53;5077869;27;45539;-78
2023/10/20 03:11:39;;;;;;;;;0.00;0.00;;;;;17.76;48.86;97035.72;5078593;27;45441;-78
2023/10/20 03:14:05;;;;;;;;;0.00;0.00;;;;;17.81;48.28;97033.69;5078187;27;45546;-78
2023/10/20 03:16:31;;;;;;;;;0.00;0.00;;;;;17.97;48.61;97074.16;5078763;27;45583;-78
2023/10/20 03:18:57;;;;;;;;;0.00;0.00;;;;;17.95;48.61;97056.72;5078602;27;46117;-79
2023/10/20 03:21:23;;;;;;;;;0.00;0.00;;;;;17.91;48.54;97056.03;5078412;27;45471;-78
2023/10/20 03:23:49;;;;;;;;;0.00;0.00;;;;;17.99;48.31;97068.81;5078606;27;45516;-76
2023/10/20 03:26:14;;;;;;;;;1.00;0.00;;;;;18.07;48.29;97071.88;5078881;27;45422;-78
2023/10/20 03:28:40;;;;;;;;;0.00;0.00;;;;;18.12;47.96;97076.88;5077350;28;45536;-79
2023/10/20 03:31:07;;;;;;;;;0.33;0.00;;;;;18.15;48.14;97076.72;5078477;28;45453;-79
2023/10/20 03:33:32;;;;;;;;;0.00;0.00;;;;;18.16;47.86;97075.78;5077313;27;45373;-78
2023/10/20 03:36:05;;;;;;;;;0.00;0.00;;;;;18.11;48.01;97080.47;5077653;28;45310;-79
2023/10/20 03:38:32;;;;;;;;;0.00;0.00;;;;;18.07;48.12;97079.78;5077594;27;45303;-79
2023/10/20 03:41:06;;;;;;;;;0.00;0.00;;;;;17.98;48.38;97082.94;5077838;28;45442;-79
2023/10/20 03:43:31;;;;;;;;;0.00;0.00;;;;;17.95;48.25;97067.28;5077949;27;45650;-78
2023/10/20 03:45:59;;;;;;;;;0.00;0.00;;;;;17.96;48.44;97074.25;5078368;27;45600;-79
2023/10/20 03:48:27;;;;;;;;;0.00;0.00;;;;;18.00;48.30;97081.06;5076870;28;45568;-75
2023/10/20 03:50:53;;;;;;;;;0.00;0.00;;;;;17.96;48.16;97068.97;5076068;27;45566;-75
2023/10/20 03:53:22;;;;;;;;;0.00;0.00;;;;;18.04;48.10;97083.44;5077741;27;45511;-75
2023/10/20 03:56:02;;;;;;;;;0.00;0.00;;;;;17.77;48.29;97037.44;5078842;27;45248;-75
2023/10/20 03:58:29;;;;;;;;;0.00;0.00;;;;;18.03;48.18;97092.31;5077836;27;45341;-78
2023/10/20 04:01:01;;;;;;;;;0.00;0.00;;;;;18.05;48.47;97093.06;5077876;27;45363;-77
2023/10/20 04:03:27;;;;;;;;;0.00;0.00;;;;;18.00;48.23;97081.06;5078167;27;45178;-77
2023/10/20 04:05:54;;;;;;;;;0.00;0.00;;;;;18.18;48.06;97100.31;5078110;27;45387;-77
2023/10/20 04:08:20;;;;;;;;;0.00;0.00;;;;;18.03;47.88;97097.59;5078081;27;45526;-76
2023/10/20 04:10:46;;;;;;;;;0.00;0.00;;;;;17.95;48.11;97077.84;5078083;27;45508;-75
2023/10/20 04:13:12;;;;;;;;;0.00;0.00;;;;;17.98;49.14;97091.69;5077835;27;45403;-76
2023/10/20 04:15:39;;;;;;;;;0.00;0.00;;;;;18.33;50.50;97135.59;5078017;27;45449;-75
2023/10/20 04:18:05;;;;;;;;;0.00;0.00;;;;;18.21;52.75;97160.91;5077703;27;45425;-76
2023/10/20 04:20:40;;;;;;;;;0.00;0.00;;;;;18.22;52.66;97159.97;5077711;27;45331;-77
2023/10/20 04:23:09;;;;;;;;;0.00;0.00;;;;;18.04;54.50;97153.91;5077707;27;45362;-77
2023/10/20 04:25:52;;;;;;;;;0.00;0.00;;;;;17.99;54.13;97155.97;5077861;27;45389;-76
2023/10/20 04:28:42;;;;;;;;;0.00;0.00;;;;;17.93;54.54;97167.69;5077798;27;45427;-76
2023/10/20 04:48:08;;;;;;;;;0.00;0.00;;;;;17.24;58.85;97118.53;5077060;27;45504;-75
2023/10/20 04:53:23;;;;;;;;;0.00;0.00;;;;;17.05;59.50;97137.06;5077083;28;45418;-77
2023/10/20 04:59:09;;;;;;;;;0.00;0.00;;;;;16.74;60.13;97088.50;5077652;27;45271;-75
2023/10/20 05:03:57;;;;;;;;;0.00;0.00;;;;;16.99;59.89;97130.34;5076525;28;45312;-74
2023/10/20 05:06:42;;;;;;;;;1.00;0.00;;;;;16.70;60.66;97087.78;5075249;28;45438;-74
2023/10/20 05:09:14;;;;;;;;;0.67;0.00;;;;;16.94;60.93;97134.13;5077247;27;45472;-76
2023/10/20 05:11:41;;;;;;;;;0.00;0.00;;;;;16.94;60.05;97128.84;5076762;27;45486;-73
2023/10/20 05:14:07;;;;;;;;;0.00;0.00;;;;;16.74;60.41;97099.03;5076598;27;45453;-73
2023/10/20 05:16:34;;;;;;;;;0.00;0.00;;;;;16.89;60.01;97134.34;5076954;27;45489;-77
2023/10/20 05:19:04;;;;;;;;;0.00;0.00;;;;;16.89;60.17;97129.06;5075819;28;45474;-76
2023/10/20 05:21:38;;;;;;;;;0.00;0.00;;;;;16.92;60.32;97136.00;5075137;27;47810;-77
2023/10/20 05:24:04;;;;;;;;;0.00;0.00;;;;;16.72;58.98;97093.00;5092181;27;46055;-77
2023/10/20 05:26:31;;;;;;;;;0.00;0.00;;;;;16.75;59.28;97089.34;5076427;27;45460;-74
2023/10/20 05:29:00;;;;;;;;;0.00;0.00;;;;;16.96;59.22;97116.44;5076767;27;45473;-74
2023/10/20 05:31:27;;;;;;;;;0.00;0.00;;;;;16.90;58.29;97110.53;5075162;28;45579;-76
2023/10/20 05:33:54;;;;;;;;;0.00;0.00;;;;;17.04;58.39;97114.28;5075445;28;45228;-74
2023/10/20 05:36:20;;;;;;;;;0.00;0.00;;;;;17.07;58.32;97116.78;5076679;27;45396;-74
2023/10/20 05:38:45;;;;;;;;;0.00;0.00;;;;;17.01;57.98;97117.94;5076643;27;45485;-75
2023/10/20 05:41:14;;;;;;;;;0.00;0.00;;;;;16.89;58.09;97100.94;5076142;27;45376;-74
2023/10/20 05:43:41;;;;;;;;;0.00;0.00;;;;;17.04;57.06;97112.47;5076469;27;45517;-74
2023/10/20 05:46:17;;;;;;;;;0.00;0.00;;;;;16.76;57.09;97043.63;5076275;28;45235;-76
2023/10/20 05:48:43;;;;;;;;;0.00;0.00;;;;;17.13;56.82;97103.25;5076896;27;45476;-75
2023/10/20 05:51:09;;;;;;;;;0.00;0.00;;;;;17.15;56.75;97104.03;5081221;28;45388;-74
2023/10/20 05:53:36;;;;;;;;;0.00;0.00;;;;;17.12;56.66;97091.00;5088031;28;45878;-74
2023/10/20 05:56:02;;;;;;;;;0.00;0.00;;;;;17.06;56.52;97078.13;5083940;27;45413;-73
2023/10/20 05:58:30;;;;;;;;;0.00;0.00;;;;;17.13;56.89;97105.03;5086340;27;45244;-76
2023/10/20 06:01:02;;;;;;;;;0.00;0.00;;;;;17.17;56.60;97106.56;5082049;27;46229;-73
2023/10/20 06:03:28;;;;;;;;;0.00;0.00;;;;;17.20;56.21;97093.25;5083598;27;45562;-74
2023/10/20 06:05:59;;;;;;;;;0.00;0.00;;;;;17.07;55.74;97091.25;5081884;27;45263;-73
2023/10/20 06:08:25;;;;;;;;;0.00;0.00;;;;;17.22;55.28;97101.94;5080966;27;45531;-78
2023/10/20 06:10:52;;;;;;;;;0.00;0.00;;;;;17.10;55.13;97053.31;5079111;27;45484;-79
2023/10/20 06:13:18;;;;;;;;;0.00;0.00;;;;;17.29;55.40;97080.44;5078768;27;45437;-77
2023/10/20 06:15:46;;;;;;;;;0.00;0.00;;;;;17.27;54.95;97078.81;5078711;28;45239;-78
2023/10/20 06:18:11;;;;;;;;;0.00;0.00;;;;;17.41;54.79;97107.09;5079204;27;45433;-74
2023/10/20 06:20:40;;;;;;;;;1.00;0.00;;;;;17.48;54.70;97096.13;5078576;27;45933;-76
2023/10/20 06:23:07;;;;;;;;;0.00;0.00;;;;;17.24;54.40;97084.22;5078559;27;45628;-77
2023/10/20 06:25:33;;;;;;;;;0.00;0.00;;;;;17.38;54.21;97112.53;5078782;27;45491;-74
2023/10/20 06:27:58;;;;;;;;;0.00;0.00;;;;;17.51;54.08;97116.25;5078722;27;45417;-78
2023/10/20 06:30:25;;;;;;;;;0.00;0.00;;;;;17.50;54.11;97114.50;5078506;27;45482;-76
2023/10/20 06:32:57;;;;;;;;;0.00;0.00;;;;;17.59;53.78;97111.41;5078326;27;45460;-79
2023/10/20 06:35:33;;;;;;;;;0.00;0.00;;;;;17.62;53.98;97103.31;5078626;27;45374;-73
2023/10/20 06:40:36;;;;;;;;;0.00;0.00;;;;;17.62;53.49;97102.44;5076887;28;45358;-74
2023/10/20 06:43:02;;;;;;;;;0.00;0.00;;;;;17.76;53.47;97141.31;5078414;27;45394;-73
2023/10/20 06:45:28;;;;;;;;;0.00;0.00;;;;;17.61;52.80;97101.59;5079621;27;45476;-78
2023/10/20 06:47:53;;;;;;;;;0.00;0.00;;;;;17.03;52.70;96986.00;5079804;27;45557;-78
2023/10/20 06:50:19;;;;;;;;;0.00;0.00;;;;;17.94;53.16;97136.84;5079277;27;45290;-79
2023/10/20 06:52:45;;;;;;;;;0.00;0.00;;;;;17.95;52.92;97142.06;5082183;27;45352;-78
2023/10/20 06:55:10;;;;;;;;;0.00;0.00;;;;;18.01;52.99;97133.81;5080067;27;45552;-79
2023/10/20 06:57:36;;;;;;;;;0.00;0.00;;;;;17.99;52.85;97133.03;5080203;27;45441;-80
2023/10/20 07:00:03;;;;;;;;;0.00;0.00;;;;;18.01;52.65;97157.56;5079285;28;46175;-74
2023/10/20 07:02:30;;;;;;;;;0.00;0.00;;;;;18.01;52.66;97159.38;5078596;27;45406;-74
2023/10/20 07:04:56;;;;;;;;;0.00;0.00;;;;;17.87;52.37;97145.13;5080977;28;45233;-76
2023/10/20 07:07:22;;;;;;;;;0.00;0.00;;;;;18.16;51.99;97178.78;5080417;27;45371;-76
2023/10/20 07:09:47;;;;;;;;;0.00;0.00;;;;;18.03;52.08;97142.50;5079791;28;46323;-76
2023/10/20 07:12:15;;;;;;;;;0.00;0.00;;;;;18.19;52.68;97178.66;5078605;27;45409;-76
2023/10/20 07:14:43;;;;;;;;;0.00;0.00;;;;;18.01;52.92;97146.16;5081020;27;45342;-76
2023/10/20 07:17:09;;;;;;;;;0.00;0.00;;;;;18.21;52.78;97163.56;5079453;27;45299;-74
2023/10/20 07:19:35;;;;;;;;;0.00;0.00;;;;;18.03;52.71;97152.22;5081056;28;46019;-75
2023/10/20 07:22:04;;;;;;;;;0.00;0.00;;;;;18.19;52.37;97186.56;5078904;27;45326;-82
2023/10/20 07:24:35;;;;;;;;;0.00;0.00;;;;;18.26;52.04;97186.16;5077457;27;45632;-74
2023/10/20 07:27:01;;;;;;;;;0.00;0.00;;;;;17.62;52.09;97107.72;5076991;27;45444;-75
2023/10/20 07:29:28;;;;;;;;;0.00;0.00;;;;;18.32;52.22;97240.44;5076477;28;45819;-79
2023/10/20 07:31:54;;;;;;;;;0.00;0.00;;;;;18.28;52.19;97234.47;5078324;27;45502;-75
2023/10/20 07:34:21;;;;;;;;;0.33;0.00;;;;;18.30;52.02;97242.28;5077607;27;45368;-82
2023/10/20 07:36:46;;;;;;;;;0.00;0.00;;;;;18.21;52.38;97230.44;5077184;27;45464;-82
2023/10/20 07:39:16;;;;;;;;;0.00;0.00;;;;;18.28;52.05;97254.75;5078880;27;45405;-80
2023/10/20 07:41:44;;;;;;;;;0.00;0.00;;;;;18.40;51.83;97254.09;5078168;27;45404;-78
2023/10/20 07:44:18;;;;;;;;;0.00;0.00;;;;;18.49;51.71;97263.31;5059963;28;45308;-82
2023/10/20 07:46:44;;;;;;;;;0.00;0.00;;;;;18.21;51.14;97219.03;5072715;28;45456;-76
2023/10/20 07:49:13;;;;;;;;;0.00;0.00;;;;;18.62;51.48;97268.75;5077735;28;46033;-79
2023/10/20 07:51:39;;;;;;;;;0.00;0.00;;;;;18.60;51.49;97281.22;5082226;27;45383;-75
2023/10/20 07:54:07;;;;;;;;;0.00;0.00;;;;;18.54;51.44;97269.19;5077563;27;45278;-76
2023/10/20 07:56:32;;;;;;;;;0.00;0.00;;;;;18.64;51.10;97285.41;5077243;27;45461;-76
2023/10/20 07:58:58;;;;;;;;;0.00;0.00;;;;;18.64;53.01;97288.03;5076372;27;45948;-77
2023/10/20 08:01:24;;;;;;;;;0.00;0.00;;;;;18.61;53.89;97286.41;5078597;27;45402;-75
2023/10/20 08:03:50;;;;;;;;;0.00;0.00;;;;;18.68;53.89;97301.03;5077291;27;45358;-75
2023/10/20 08:06:15;;;;;;;;;3.00;3.00;;;;;18.36;53.94;97278.13;5078355;27;45405;-75
2023/10/20 08:08:42;;;;;;;;;0.00;0.00;;;;;18.54;53.94;97311.47;5078410;27;46007;-75
2023/10/20 08:11:08;;;;;;;;;0.00;0.00;;;;;18.59;53.71;97309.44;5078755;28;45341;-77
2023/10/20 08:13:34;;;;;;;;;0.00;0.00;;;;;18.54;54.70;97318.56;5076902;27;45369;-75
2023/10/20 08:16:03;;;;;;;;;0.00;0.00;;;;;18.56;54.86;97321.97;5078617;27;45341;-76
2023/10/20 08:18:33;;;;;;;;;0.00;0.00;;;;;18.27;55.28;97275.03;5078239;28;46047;-75
2023/10/20 08:21:10;;;;;;;;;0.00;0.00;;;;;18.38;55.94;97332.63;5078070;27;45481;-75
2023/10/20 08:23:39;;;;;;;;;0.00;0.00;;;;;18.41;57.18;97353.56;5079803;27;45456;-76
2023/10/20 08:26:05;;;;;;;;;0.00;0.00;;;;;18.47;56.81;97349.75;5078106;28;45412;-76
2023/10/20 08:28:31;;;;;;;;;0.00;0.00;;;;;18.37;57.99;97340.63;5078201;27;46013;-77
2023/10/20 08:31:10;;;;;;;;;0.00;0.00;;;;;18.19;58.19;97334.50;5078721;28;45493;-76
2023/10/20 08:33:36;;;;;;;;;0.00;0.00;;;;;18.40;57.85;97370.38;5078513;27;45532;-76
2023/10/20 08:36:15;;;;;;;;;0.00;0.00;;;;;18.35;58.12;97360.97;5078678;27;45271;-76
2023/10/20 08:38:44;;;;;;;;;3.00;3.00;;;;;18.43;57.54;97370.22;5078090;27;46216;-76
2023/10/20 08:41:13;;;;;;;;;0.00;0.00;;;;;18.48;57.79;97375.25;5077241;27;45391;-76
2023/10/20 08:43:40;;;;;;;;;0.00;0.00;;;;;18.38;57.94;97361.69;5078809;27;45272;-76
2023/10/20 08:46:10;;;;;;;;;0.00;0.00;;;;;18.57;57.63;97381.84;5078479;27;45504;-76
2023/10/20 08:48:40;;;;;;;;;0.00;0.00;;;;;18.58;57.58;97367.69;5078093;27;45587;-76
2023/10/20 08:51:07;;;;;;;;;0.00;0.00;;;;;18.60;57.07;97386.94;5078258;27;45405;-76
2023/10/20 08:53:39;;;;;;;;;0.00;0.00;;;;;18.43;57.18;97351.69;5078381;27;45337;-75
2023/10/20 08:56:06;;;;;;;;;0.00;0.00;;;;;18.64;56.67;97414.94;5078327;27;45480;-76
2023/10/20 08:58:33;;;;;;;;;0.00;0.00;;;;;18.28;57.62;97376.28;5077886;27;46534;-76
2023/10/20 09:01:00;;;;;;;;;0.00;0.00;;;;;18.61;58.03;97438.91;5077771;27;45428;-75
2023/10/20 09:03:27;;;;;;;;;0.00;0.00;;;;;18.24;59.57;97432.88;5077192;27;45414;-76
2023/10/20 09:06:16;;;;;;;;;0.00;0.00;;;;;18.35;59.57;97471.97;5078660;28;45318;-75
2023/10/20 09:08:47;;;;;;;;;0.00;0.00;;;;;18.37;59.72;97457.75;5075721;27;46964;-76
2023/10/20 09:11:14;;;;;;;;;0.00;0.00;;;;;18.42;59.48;97452.22;5076273;28;45688;-76
2023/10/20 09:13:43;;;;;;;;;0.00;0.00;;;;;18.52;59.67;97469.31;5077785;27;45528;-76
2023/10/20 09:16:13;;;;;;;;;0.00;0.00;;;;;18.17;59.62;97418.28;5078057;27;45475;-76
2023/10/20 09:18:51;;;;;;;;;0.00;0.00;;;;;18.40;59.20;97454.06;5077538;27;45398;-76
2023/10/20 09:21:20;;;;;;;;;0.00;0.00;;;;;18.25;59.03;97445.16;5077147;28;45579;-75
2023/10/20 09:24:02;;;;;;;;;1.00;1.00;;;;;17.82;60.15;97383.88;5076889;28;45404;-76
2023/10/20 09:26:35;;;;;;;;;1.00;1.00;;;;;18.35;59.73;97495.75;5079934;27;45297;-76
2023/10/20 09:29:05;;;;;;;;;0.00;0.00;;;;;18.03;59.90;97470.00;5080978;27;46202;-76
2023/10/20 09:31:33;;;;;;;;;0.00;0.00;;;;;17.82;60.20;97476.28;5081063;27;45229;-76
2023/10/20 09:33:59;;;;;;;;;0.33;0.00;;;;;18.36;59.86;97558.22;5080786;27;45258;-76
2023/10/20 09:36:28;;;;;;;;;0.00;0.00;;;;;18.37;60.10;97544.94;5080211;27;45462;-76
2023/10/20 09:38:56;;;;;;;;;0.00;0.00;;;;;18.34;60.29;97523.94;5080207;27;45508;-75
2023/10/20 09:41:24;;;;;;;;;0.00;0.00;;;;;18.42;60.31;97556.16;5080163;27;45266;-75
2023/10/20 09:44:07;;;;;;;;;0.00;0.00;;;;;18.34;61.40;97562.75;5080215;27;45499;-76
2023/10/20 09:46:55;;;;;;;;;1.00;1.00;;;;;18.35;61.03;97578.53;5080332;27;45523;-76
2023/10/20 09:49:24;;;;;;;;;0.00;0.00;;;;;18.14;61.54;97547.88;5080060;27;45342;-76
2023/10/20 09:51:50;;;;;;;;;0.00;0.00;;;;;18.38;61.87;97570.47;5080261;27;45366;-76
2023/10/20 09:54:22;;;;;;;;;0.00;0.00;;;;;18.40;61.66;97599.44;5080044;27;45389;-76
2023/10/20 09:56:49;;;;;;;;;0.00;0.00;;;;;18.14;61.91;97559.28;5080197;27;45398;-76
2023/10/20 09:59:27;;;;;;;;;0.00;0.00;;;;;18.49;61.12;97610.41;5079548;27;45540;-76
2023/10/20 10:01:54;;;;;;;;;0.00;0.00;;;;;18.56;61.50;97613.63;5079582;27;45280;-76
2023/10/20 10:04:28;;;;;;;;;0.00;0.00;;;;;18.60;61.61;97620.47;5079884;27;45411;-76
2023/10/20 10:06:55;;;;;;;;;0.00;0.00;;;;;18.56;61.61;97603.06;5079835;27;45242;-76
2023/10/20 10:09:22;;;;;;;;;0.00;0.00;;;;;18.75;61.08;97616.19;5079582;27;45650;-76
2023/10/20 10:11:48;;;;;;;;;0.00;0.00;;;;;18.79;61.58;97628.38;5079135;27;45425;-76
2023/10/20 10:14:22;;;;;;;;;0.00;0.00;;;;;18.69;61.95;97632.38;5079752;27;45346;-76
2023/10/20 10:16:53;;;;;;;;;0.00;0.00;;;;;18.37;61.92;97584.59;5079803;27;45313;-76
2023/10/20 10:19:20;;;;;;;;;1.00;1.00;;;;;18.34;63.03;97592.66;5079341;27;45428;-76
2023/10/20 10:21:53;;;;;;;;;1.00;0.33;;;;;18.61;62.93;97647.78;5079331;27;45387;-76
2023/10/20 10:24:21;;;;;;;;;0.00;0.00;;;;;18.52;62.52;97635.00;5079336;27;45302;-76
2023/10/20 10:26:53;;;;;;;;;1.00;0.00;;;;;18.49;62.16;97658.00;5078161;28;45619;-76
2023/10/20 10:29:40;;;;;;;;;0.00;0.00;;;;;18.54;62.38;97664.84;5079271;27;45700;-76
2023/10/20 10:32:36;;;;;;;;;0.00;0.00;;;;;18.65;62.34;97668.69;5079051;28;45431;-76
2023/10/20 10:35:06;;;;;;;;;2.00;1.00;;;;;18.77;62.85;97669.88;5079181;27;45372;-76
2023/10/20 10:37:33;;;;;;;;;0.00;0.00;;;;;16.01;62.04;97206.16;5079384;27;45437;-76
2023/10/20 10:40:15;;;;;;;;;0.00;0.00;;;;;18.63;63.50;97643.25;5078920;27;46148;-76
2023/10/20 10:42:45;;;;;;;;;0.00;0.00;;;;;18.48;62.61;97653.66;5079126;28;45504;-76
2023/10/20 10:45:33;;;;;;;;;0.00;0.00;;;;;18.69;62.13;97680.81;5079069;27;45539;-76
2023/10/20 10:48:11;;;;;;;;;2.00;2.00;;;;;18.70;63.16;97671.09;5078077;27;45597;-76
2023/10/20 10:50:42;;;;;;;;;0.67;0.00;;;;;18.68;63.37;97684.41;5079437;27;45274;-76
2023/10/20 10:53:10;;;;;;;;;0.00;0.00;;;;;18.63;63.89;97698.78;5079367;27;45591;-75
2023/10/20 10:55:37;;;;;;;;;0.00;0.00;;;;;18.49;64.31;97707.38;5079494;27;45549;-75
2023/10/20 10:58:06;;;;;;;;;0.00;0.00;;;;;18.11;64.48;97641.34;5079062;27;45489;-75
2023/10/20 11:00:33;;;;;;;;;0.00;0.00;;;;;18.42;64.44;97706.81;5078482;27;45362;-80
2023/10/20 11:03:00;;;;;;;;;0.00;0.00;;;;;18.23;64.54;97677.75;5078662;27;45332;-79
2023/10/20 11:05:27;;;;;;;;;0.00;0.00;;;;;18.29;64.66;97714.44;5078785;27;46077;-78
2023/10/20 11:08:05;;;;;;;;;0.00;0.00;;;;;18.35;64.37;97737.09;5078876;28;45378;-77
2023/10/20 11:10:42;;;;;;;;;0.00;0.00;;;;;18.23;64.66;97735.03;5077389;27;46530;-78
2023/10/20 11:13:10;;;;;;;;;5.00;5.00;;;;;18.34;63.99;97751.22;5078930;27;45286;-78
2023/10/20 11:15:37;;;;;;;;;0.00;0.00;;;;;18.34;64.31;97727.44;5078867;27;45422;-79
2023/10/20 11:18:05;;;;;;;;;0.00;0.00;;;;;18.37;64.10;97761.66;5078575;27;46065;-77
2023/10/20 11:20:37;;;;;;;;;0.00;0.00;;;;;17.70;63.98;97641.41;5078459;27;45445;-76
2023/10/20 11:23:05;;;;;;;;;0.00;0.00;;;;;18.31;63.76;97738.16;5078775;27;45299;-77
2023/10/20 11:25:31;;;;;;;;;0.00;0.00;;;;;18.24;64.57;97744.66;5078765;27;45394;-76
2023/10/20 11:27:57;;;;;;;;;0.00;0.00;;;;;18.32;64.48;97753.06;5079028;27;45309;-77
2023/10/20 11:30:41;;;;;;;;;0.00;0.00;;;;;18.31;65.07;97777.81;5078508;28;45261;-78
2023/10/20 11:33:10;;;;;;;;;0.00;0.00;;;;;18.33;64.25;97770.66;5078520;27;45408;-78
2023/10/20 11:35:35;;;;;;;;;0.00;0.00;;;;;18.45;64.08;97785.94;5078560;27;45506;-77
2023/10/20 11:38:03;;;;;;;;;0.00;0.00;;;;;18.26;64.43;97763.94;5077548;28;45478;-77
2023/10/20 11:40:29;;;;;;;;;0.00;0.00;;;;;18.40;64.55;97780.03;5078429;27;45974;-77
2023/10/20 11:42:57;;;;;;;;;0.00;0.00;;;;;18.22;64.97;97781.75;5078383;27;45353;-77
2023/10/20 11:45:23;;;;;;;;;0.00;0.00;;;;;18.40;65.03;97801.19;5078345;27;45333;-77
2023/10/20 11:47:49;;;;;;;;;0.00;0.00;;;;;18.41;64.42;97800.25;5077890;27;45304;-77
2023/10/20 11:50:21;;;;;;;;;0.00;0.00;;;;;18.43;64.41;97814.25;5077858;27;45462;-77
2023/10/20 11:52:49;;;;;;;;;1.00;1.00;;;;;18.31;64.67;97787.53;5078158;27;45232;-77
2023/10/20 11:55:15;;;;;;;;;0.00;0.00;;;;;18.11;65.78;97786.63;5078351;27;45606;-76
2023/10/20 11:57:41;;;;;;;;;0.00;0.00;;;;;18.07;65.37;97775.34;5078571;27;45307;-77
2023/10/20 12:00:09;;;;;;;;;0.00;0.00;;;;;18.35;65.20;97819.03;5077874;27;45234;-77
2023/10/20 12:02:36;;;;;;;;;0.00;0.00;;;;;18.27;65.43;97837.00;5078041;27;45408;-77
2023/10/20 12:05:01;;;;;;;;;0.00;0.00;;;;;18.19;65.56;97857.63;5078274;27;45531;-78
2023/10/20 12:07:27;;;;;;;;;0.00;0.00;;;;;18.18;66.21;97872.59;5078150;27;45323;-78